createdAt,value
2018-09-05T00:00:12.089Z,17.6
2018-09-05T00:05:14.627Z,17.5
2018-09-05T00:10:16.647Z,17.4
2018-09-05T00:15:18.928Z,17.299999
2018-09-05T00:20:21.334Z,17.200001
2018-09-05T00:25:23.658Z,17.1
2018-09-05T00:30:25.818Z,17
2018-09-05T00:35:28.034Z,17
2018-09-05T00:40:30.594Z,17
2018-09-05T00:45:32.718Z,16.9
2018-09-05T00:50:35.067Z,16.9
2018-09-05T00:55:37.330Z,17
2018-09-05T01:00:39.731Z,17
2018-09-05T01:05:42.012Z,17.1
2018-09-05T01:10:44.182Z,17.1
2018-09-05T01:15:46.434Z,17.200001
2018-09-05T01:20:48.991Z,17.299999
2018-09-05T01:25:51.075Z,17.4
2018-09-05T01:30:53.703Z,17.5
2018-09-05T01:35:55.630Z,17.6
2018-09-05T01:40:57.932Z,17.6
2018-09-05T01:46:00.461Z,17.700001
2018-09-05T01:51:02.838Z,17.799999
2018-09-05T01:56:05.754Z,17.799999
2018-09-05T02:01:07.074Z,17.799999
2018-09-05T02:06:09.420Z,17.799999
2018-09-05T02:11:11.715Z,17.799999
2018-09-05T02:16:14.142Z,17.799999
2018-09-05T02:21:16.407Z,17.700001
2018-09-05T02:26:18.696Z,17.6
2018-09-05T02:31:20.941Z,17.6
2018-09-05T02:36:23.449Z,17.5
2018-09-05T02:41:25.544Z,17.5
2018-09-05T02:46:27.963Z,17.5
2018-09-05T02:51:30.089Z,17.5
2018-09-05T02:56:32.308Z,17.6
2018-09-05T03:01:34.788Z,17.6
2018-09-05T03:06:36.989Z,17.700001
2018-09-05T03:11:39.357Z,17.700001
2018-09-05T03:16:41.529Z,17.799999
2018-09-05T03:21:43.847Z,17.799999
2018-09-05T03:26:46.242Z,17.9
2018-09-05T03:31:48.456Z,18
2018-09-05T03:36:50.790Z,18
2018-09-05T03:41:52.959Z,18
2018-09-05T03:46:55.293Z,18.1
2018-09-05T03:51:57.739Z,18.1
2018-09-05T03:56:59.848Z,18.1
2018-09-05T04:02:02.859Z,18.200001
2018-09-05T04:07:04.584Z,18.200001
2018-09-05T04:12:06.840Z,18.200001
2018-09-05T04:17:10.385Z,18.200001
2018-09-05T04:22:11.650Z,18.299999
2018-09-05T04:27:13.704Z,18.299999
2018-09-05T04:32:16.041Z,18.299999
2018-09-05T04:37:18.245Z,18.4
2018-09-05T04:42:20.740Z,18.4
2018-09-05T04:47:22.877Z,18.4
2018-09-05T04:52:25.179Z,18.4
2018-09-05T04:57:27.462Z,18.4
2018-09-05T05:02:29.819Z,18.4
2018-09-05T05:07:31.994Z,18.5
2018-09-05T05:12:34.352Z,18.4
2018-09-05T05:17:36.613Z,18.5
2018-09-05T05:22:39.133Z,18.5
2018-09-05T05:27:41.214Z,18.5
2018-09-05T05:32:43.784Z,18.5
2018-09-05T05:37:45.817Z,18.5
2018-09-05T05:42:48.116Z,18.5
2018-09-05T05:47:50.398Z,18.5
2018-09-05T05:52:52.696Z,18.6
2018-09-05T05:57:55.008Z,18.6
2018-09-05T06:02:57.402Z,18.6
2018-09-05T06:07:59.692Z,18.6
2018-09-05T06:13:01.983Z,18.6
2018-09-05T06:18:04.312Z,18.700001
2018-09-05T06:23:06.549Z,18.9
2018-09-05T06:28:08.726Z,19
2018-09-05T06:33:10.983Z,19.299999
2018-09-05T06:38:13.478Z,19.5
2018-09-05T06:43:15.627Z,19.6
2018-09-05T06:48:17.963Z,19.5
2018-09-05T06:53:20.258Z,19.5
2018-09-05T06:58:22.797Z,19.6
2018-09-05T07:03:24.806Z,19.700001
2018-09-05T07:08:27.115Z,19.9
2018-09-05T07:13:29.452Z,20
2018-09-05T07:18:31.646Z,20
2018-09-05T07:23:34.133Z,20.1
2018-09-05T07:28:36.409Z,20.299999
2018-09-05T07:33:38.749Z,20.5
2018-09-05T07:38:40.937Z,20.6
2018-09-05T07:43:43.317Z,20.5
2018-09-05T07:48:45.506Z,20.4
2018-09-05T07:53:47.875Z,20.299999
2018-09-05T07:58:50.042Z,20.4
2018-09-05T08:03:52.343Z,20.299999
2018-09-05T08:08:54.604Z,20.4
2018-09-05T08:13:57.011Z,20.5
2018-09-05T08:18:59.245Z,20.5
2018-09-05T08:24:01.534Z,20.6
2018-09-05T08:29:04.103Z,20.799999
2018-09-05T08:34:06.169Z,20.9
2018-09-05T08:39:08.463Z,21.1
2018-09-05T08:44:10.873Z,21.299999
2018-09-05T08:49:12.969Z,21.4
2018-09-05T08:54:15.394Z,21.5
2018-09-05T08:59:17.589Z,21.5
2018-09-05T09:04:21.321Z,21.6
2018-09-05T09:09:22.214Z,21.799999
2018-09-05T09:14:24.553Z,21.799999
2018-09-05T09:19:26.713Z,21.799999
2018-09-05T09:24:29.111Z,22
2018-09-05T09:29:31.362Z,22
2018-09-05T09:34:33.570Z,22.1
2018-09-05T09:39:36.053Z,22.4
2018-09-05T09:44:39.738Z,22.700001
2018-09-05T09:49:40.549Z,22.9
2018-09-05T09:54:42.904Z,23
2018-09-05T09:59:45.200Z,23.5
2018-09-05T10:04:47.479Z,23.799999
2018-09-05T10:09:49.890Z,23.9
2018-09-05T10:14:52.198Z,24
2018-09-05T10:19:54.620Z,24.5
2018-09-05T10:24:56.573Z,24.700001
2018-09-05T10:29:58.872Z,25
2018-09-05T10:35:01.264Z,24.9
2018-09-05T10:40:03.612Z,24.6
2018-09-05T10:45:05.839Z,24.299999
2018-09-05T10:50:08.094Z,24.1
2018-09-05T10:55:10.535Z,23.799999
2018-09-05T11:00:12.731Z,23.5
2018-09-05T11:05:14.997Z,23.299999
2018-09-05T11:10:17.233Z,23.6
2018-09-05T11:15:21.116Z,23.9
2018-09-05T11:20:21.886Z,24.1
2018-09-05T11:25:25.467Z,24.4
2018-09-05T11:30:26.812Z,24.6
2018-09-05T11:35:28.804Z,24.299999
2018-09-05T11:40:31.060Z,24.299999
2018-09-05T11:45:33.308Z,25
2018-09-05T11:50:35.626Z,25.5
2018-09-05T11:55:37.984Z,25.1
2018-09-05T12:00:40.367Z,24.6
2018-09-05T12:05:42.443Z,24.200001
2018-09-05T12:10:44.769Z,24.1
2018-09-05T12:15:47.156Z,24.6
2018-09-05T12:20:49.465Z,25.700001
2018-09-05T12:25:51.746Z,26.299999
2018-09-05T12:30:54.630Z,26.700001
2018-09-05T12:35:56.297Z,26.4
2018-09-05T12:40:58.562Z,26.799999
2018-09-05T12:46:00.901Z,26.5
2018-09-05T12:51:04.482Z,26.700001
2018-09-05T12:56:06.471Z,26.5
2018-09-05T13:01:08.113Z,26.4
2018-09-05T13:06:10.064Z,25.700001
2018-09-05T13:11:12.360Z,25.200001
2018-09-05T13:16:14.668Z,25
2018-09-05T13:21:17.023Z,25.6
2018-09-05T13:26:19.270Z,25.799999
2018-09-05T13:31:21.458Z,26.200001
2018-09-05T13:36:23.787Z,26.5
2018-09-05T13:41:26.101Z,26.6
2018-09-05T13:46:28.530Z,27
2018-09-05T13:51:30.707Z,26.799999
2018-09-05T13:56:34.555Z,26.6
2018-09-05T14:01:35.212Z,27.200001
2018-09-05T14:06:37.638Z,27.200001
2018-09-05T14:11:39.823Z,27.1
2018-09-05T14:16:42.169Z,26.200001
2018-09-05T14:21:44.562Z,25.6
2018-09-05T14:26:46.698Z,25.299999
2018-09-05T14:31:50.586Z,25.200001
2018-09-05T14:36:51.516Z,25.1
2018-09-05T14:41:53.803Z,25
2018-09-05T14:46:55.924Z,24.799999
2018-09-05T14:51:58.289Z,25
2018-09-05T14:58:13.003Z,25.200001
2018-09-05T15:02:02.879Z,24.9
2018-09-05T15:07:05.146Z,24.799999
2018-09-05T15:13:26.758Z,24.799999
2018-09-05T15:17:09.824Z,25.200001
2018-09-05T15:22:12.006Z,25.6
2018-09-05T15:27:14.236Z,25.700001
2018-09-05T15:32:16.599Z,25.700001
2018-09-05T15:38:03.557Z,25.200001
2018-09-05T15:42:21.186Z,25
2018-09-05T15:49:26.315Z,24.799999
2018-09-05T15:52:25.759Z,24.6
2018-09-05T15:57:38.123Z,24.5
2018-09-05T16:02:34.593Z,24.5
2018-09-05T16:07:42.167Z,24.5
2018-09-05T16:12:34.896Z,24.200001
2018-09-05T16:17:37.260Z,24.1
2018-09-05T16:22:39.542Z,24.200001
2018-09-05T16:27:41.862Z,24.1
2018-09-05T16:32:44.158Z,24
2018-09-05T16:37:46.397Z,23.799999
2018-09-05T16:42:48.652Z,23.700001
2018-09-05T16:47:51.021Z,23.799999
2018-09-05T16:52:53.233Z,23.700001
2018-09-05T16:57:55.589Z,23.6
2018-09-05T17:02:57.904Z,23.5
2018-09-05T17:08:00.182Z,23.4
2018-09-05T17:13:02.424Z,23.299999
2018-09-05T17:18:04.689Z,23.200001
2018-09-05T17:23:06.986Z,23.200001
2018-09-05T17:28:09.362Z,23.1
2018-09-05T17:33:11.628Z,23
2018-09-05T17:38:14.040Z,22.700001
2018-09-05T17:43:20.392Z,22.299999
2018-09-05T17:48:20.367Z,22
2018-09-05T17:53:20.773Z,21.6
2018-09-05T17:58:23.118Z,21.200001
2018-09-05T18:03:25.512Z,20.9
2018-09-05T18:08:27.624Z,20.700001
2018-09-05T18:13:30.052Z,20.5
2018-09-05T18:18:32.309Z,20.299999
2018-09-05T18:23:34.611Z,20.200001
2018-09-05T18:28:36.885Z,20.1
2018-09-05T18:33:39.342Z,20
2018-09-05T18:38:41.401Z,19.799999
2018-09-05T18:43:43.790Z,19.5
2018-09-05T18:48:46.139Z,19.200001
2018-09-05T18:53:48.447Z,19.1
2018-09-05T18:58:50.674Z,19.1
2018-09-05T19:03:52.961Z,19
2018-09-05T19:08:55.270Z,18.9
2018-09-05T19:13:57.632Z,18.799999
2018-09-05T19:18:59.878Z,18.700001
2018-09-05T19:24:02.162Z,18.6
2018-09-05T19:29:04.535Z,18.5
2018-09-05T19:34:06.631Z,18.4
2018-09-05T19:39:09.056Z,18.299999
2018-09-05T19:44:11.247Z,18.200001
2018-09-05T19:49:13.693Z,18.1
2018-09-05T19:54:15.932Z,18
2018-09-05T19:59:18.228Z,18
2018-09-05T20:04:20.641Z,17.9
2018-09-05T20:09:22.833Z,17.799999
2018-09-05T20:14:25.192Z,17.799999
2018-09-05T20:19:27.496Z,17.700001
2018-09-05T20:24:29.688Z,17.700001
2018-09-05T20:29:32.067Z,17.6
2018-09-05T20:34:34.195Z,17.6
2018-09-05T20:39:36.551Z,17.6
2018-09-05T20:44:38.881Z,17.6
2018-09-05T20:49:41.147Z,17.6
2018-09-05T20:54:44.724Z,17.6
2018-09-05T20:59:46.743Z,17.5
2018-09-05T21:04:48.003Z,17.4
2018-09-05T21:09:50.330Z,17.4
2018-09-05T21:14:52.653Z,17.4
2018-09-05T21:19:54.886Z,17.299999
2018-09-05T21:24:57.294Z,17.200001
2018-09-05T21:29:59.431Z,17.200001
2018-09-05T21:35:01.869Z,17.1
2018-09-05T21:40:04.504Z,17.1
2018-09-05T21:45:06.455Z,17.1
2018-09-05T21:50:08.714Z,17.1
2018-09-05T21:55:10.997Z,17.1
2018-09-05T22:00:13.331Z,17.200001
2018-09-05T22:05:15.564Z,17.299999
2018-09-05T22:10:17.842Z,17.4
2018-09-05T22:15:24.362Z,17.4
2018-09-05T22:20:22.508Z,17.5
2018-09-05T22:25:24.779Z,17.5
2018-09-05T22:30:27.084Z,17.5
2018-09-05T22:35:29.257Z,17.6
2018-09-05T22:40:31.636Z,17.5
2018-09-05T22:45:33.890Z,17.5
2018-09-05T22:50:36.241Z,17.6
2018-09-05T22:55:38.522Z,17.6
2018-09-05T23:00:40.783Z,17.5
2018-09-05T23:05:43.066Z,17.5
2018-09-05T23:10:45.429Z,17.5
2018-09-05T23:15:47.750Z,17.4
2018-09-05T23:20:49.976Z,17.4
2018-09-05T23:25:52.375Z,17.299999
2018-09-05T23:30:54.683Z,17.200001
2018-09-05T23:35:56.919Z,17.200001
2018-09-05T23:40:59.202Z,17.1
2018-09-05T23:46:01.459Z,17
2018-09-05T23:51:03.778Z,16.9
2018-09-05T23:56:06.060Z,16.9
